sensor_id;sensor_type;location;lat;lon;timestamp;P1;durP1;ratioP1;P2;durP2;ratioP2
9563;SDS011;4820;50.870;4.702;2023-06-22T00:02:16;6.88;;;6.28;;
9563;SDS011;4820;50.870;4.702;2023-06-22T00:04:43;6.15;;;5.55;;
9563;SDS011;4820;50.870;4.702;2023-06-22T00:07:09;6.00;;;5.43;;
9563;SDS011;4820;50.870;4.702;2023-06-22T00:09:35;6.53;;;5.93;;
9563;SDS011;4820;50.870;4.702;2023-06-22T00:12:01;5.72;;;5.22;;
9563;SDS011;4820;50.870;4.702;2023-06-22T00:14:27;6.28;;;5.68;;
9563;SDS011;4820;50.870;4.702;2023-06-22T00:16:53;5.53;;;4.97;;
9563;SDS011;4820;50.870;4.702;2023-06-22T00:19:22;6.20;;;5.60;;
9563;SDS011;4820;50.870;4.702;2023-06-22T00:21:49;7.57;;;6.88;;
9563;SDS011;4820;50.870;4.702;2023-06-22T00:24:21;7.05;;;6.30;;
9563;SDS011;4820;50.870;4.702;2023-06-22T00:26:47;7.65;;;6.95;;
9563;SDS011;4820;50.870;4.702;2023-06-22T00:29:14;7.38;;;6.68;;
9563;SDS011;4820;50.870;4.702;2023-06-22T00:31:39;6.55;;;5.80;;
9563;SDS011;4820;50.870;4.702;2023-06-22T00:34:05;7.10;;;6.22;;
9563;SDS011;4820;50.870;4.702;2023-06-22T00:36:31;6.93;;;5.90;;
9563;SDS011;4820;50.870;4.702;2023-06-22T00:38:57;7.38;;;6.68;;
9563;SDS011;4820;50.870;4.702;2023-06-22T00:41:23;6.93;;;6.22;;
9563;SDS011;4820;50.870;4.702;2023-06-22T00:43:48;8.15;;;6.38;;
9563;SDS011;4820;50.870;4.702;2023-06-22T00:46:14;6.57;;;6.00;;
9563;SDS011;4820;50.870;4.702;2023-06-22T00:48:40;6.70;;;6.10;;
9563;SDS011;4820;50.870;4.702;2023-06-22T00:51:09;7.57;;;6.43;;
9563;SDS011;4820;50.870;4.702;2023-06-22T00:53:35;6.55;;;5.93;;
9563;SDS011;4820;50.870;4.702;2023-06-22T00:56:02;7.47;;;6.78;;
9563;SDS011;4820;50.870;4.702;2023-06-22T00:58:29;7.13;;;6.47;;
9563;SDS011;4820;50.870;4.702;2023-06-22T01:00:55;7.25;;;6.60;;
9563;SDS011;4820;50.870;4.702;2023-06-22T01:03:21;7.25;;;6.55;;
9563;SDS011;4820;50.870;4.702;2023-06-22T01:05:47;6.35;;;5.25;;
9563;SDS011;4820;50.870;4.702;2023-06-22T01:11:10;6.63;;;6.03;;
9563;SDS011;4820;50.870;4.702;2023-06-22T01:16:41;7.13;;;6.43;;
9563;SDS011;4820;50.870;4.702;2023-06-22T01:21:59;6.63;;;6.03;;
9563;SDS011;4820;50.870;4.702;2023-06-22T01:24:32;9.25;;;6.80;;
9563;SDS011;4820;50.870;4.702;2023-06-22T01:30:14;7.05;;;6.43;;
9563;SDS011;4820;50.870;4.702;2023-06-22T01:32:42;6.80;;;6.20;;
9563;SDS011;4820;50.870;4.702;2023-06-22T01:35:09;7.72;;;6.93;;
9563;SDS011;4820;50.870;4.702;2023-06-22T01:37:36;8.00;;;6.70;;
9563;SDS011;4820;50.870;4.702;2023-06-22T01:40:02;6.97;;;6.38;;
9563;SDS011;4820;50.870;4.702;2023-06-22T01:42:31;7.72;;;6.93;;
9563;SDS011;4820;50.870;4.702;2023-06-22T01:44:57;7.13;;;6.53;;
9563;SDS011;4820;50.870;4.702;2023-06-22T01:47:24;7.50;;;6.80;;
9563;SDS011;4820;50.870;4.702;2023-06-22T01:49:51;7.47;;;6.78;;
9563;SDS011;4820;50.870;4.702;2023-06-22T01:52:18;7.13;;;6.22;;
9563;SDS011;4820;50.870;4.702;2023-06-22T01:54:46;7.10;;;6.40;;
9563;SDS011;4820;50.870;4.702;2023-06-22T01:57:13;6.80;;;6.07;;
9563;SDS011;4820;50.870;4.702;2023-06-22T02:02:09;7.22;;;6.53;;
9563;SDS011;4820;50.870;4.702;2023-06-22T02:04:44;6.30;;;5.70;;
9563;SDS011;4820;50.870;4.702;2023-06-22T02:07:20;8.10;;;6.72;;
9563;SDS011;4820;50.870;4.702;2023-06-22T02:09:50;6.65;;;6.05;;
9563;SDS011;4820;50.870;4.702;2023-06-22T02:12:18;8.15;;;6.60;;
9563;SDS011;4820;50.870;4.702;2023-06-22T02:14:49;6.75;;;6.13;;
9563;SDS011;4820;50.870;4.702;2023-06-22T02:17:17;7.18;;;6.45;;
9563;SDS011;4820;50.870;4.702;2023-06-22T02:19:43;6.53;;;5.93;;
9563;SDS011;4820;50.870;4.702;2023-06-22T02:22:10;6.55;;;5.90;;
9563;SDS011;4820;50.870;4.702;2023-06-22T02:24:37;6.68;;;5.97;;
9563;SDS011;4820;50.870;4.702;2023-06-22T02:27:03;7.68;;;6.10;;
9563;SDS011;4820;50.870;4.702;2023-06-22T02:29:31;8.05;;;6.80;;
9563;SDS011;4820;50.870;4.702;2023-06-22T02:31:58;7.18;;;6.47;;
9563;SDS011;4820;50.870;4.702;2023-06-22T02:34:24;7.18;;;6.47;;
9563;SDS011;4820;50.870;4.702;2023-06-22T02:36:50;7.38;;;6.30;;
9563;SDS011;4820;50.870;4.702;2023-06-22T02:39:20;6.80;;;6.20;;
9563;SDS011;4820;50.870;4.702;2023-06-22T02:41:47;7.90;;;6.40;;
9563;SDS011;4820;50.870;4.702;2023-06-22T02:44:14;8.00;;;6.13;;
9563;SDS011;4820;50.870;4.702;2023-06-22T02:46:40;6.60;;;6.00;;
9563;SDS011;4820;50.870;4.702;2023-06-22T02:49:06;6.95;;;6.07;;
9563;SDS011;4820;50.870;4.702;2023-06-22T02:51:33;7.18;;;6.15;;
9563;SDS011;4820;50.870;4.702;2023-06-22T02:54:04;7.15;;;6.32;;
9563;SDS011;4820;50.870;4.702;2023-06-22T02:56:33;7.38;;;6.50;;
9563;SDS011;4820;50.870;4.702;2023-06-22T02:59:01;7.25;;;6.53;;
9563;SDS011;4820;50.870;4.702;2023-06-22T03:01:27;6.38;;;5.72;;
9563;SDS011;4820;50.870;4.702;2023-06-22T03:03:53;7.72;;;6.80;;
9563;SDS011;4820;50.870;4.702;2023-06-22T03:06:22;7.25;;;6.53;;
9563;SDS011;4820;50.870;4.702;2023-06-22T03:08:51;8.40;;;7.60;;
9563;SDS011;4820;50.870;4.702;2023-06-22T03:11:17;7.38;;;6.65;;
9563;SDS011;4820;50.870;4.702;2023-06-22T03:13:43;8.52;;;6.97;;
9563;SDS011;4820;50.870;4.702;2023-06-22T03:16:10;7.03;;;6.32;;
9563;SDS011;4820;50.870;4.702;2023-06-22T03:18:36;8.55;;;7.72;;
9563;SDS011;4820;50.870;4.702;2023-06-22T03:21:02;7.03;;;6.43;;
9563;SDS011;4820;50.870;4.702;2023-06-22T03:23:27;8.73;;;7.35;;
9563;SDS011;4820;50.870;4.702;2023-06-22T03:25:53;8.05;;;7.30;;
9563;SDS011;4820;50.870;4.702;2023-06-22T03:28:21;8.68;;;7.82;;
9563;SDS011;4820;50.870;4.702;2023-06-22T03:30:46;7.82;;;7.03;;
9563;SDS011;4820;50.870;4.702;2023-06-22T03:33:12;10.52;;;7.93;;
9563;SDS011;4820;50.870;4.702;2023-06-22T03:35:38;8.50;;;7.60;;
9563;SDS011;4820;50.870;4.702;2023-06-22T03:38:04;8.80;;;7.90;;
9563;SDS011;4820;50.870;4.702;2023-06-22T03:40:29;8.75;;;7.75;;
9563;SDS011;4820;50.870;4.702;2023-06-22T03:42:55;8.65;;;7.85;;
9563;SDS011;4820;50.870;4.702;2023-06-22T03:45:21;7.80;;;7.10;;
9563;SDS011;4820;50.870;4.702;2023-06-22T03:47:48;8.43;;;7.63;;
9563;SDS011;4820;50.870;4.702;2023-06-22T03:50:13;8.60;;;7.80;;
9563;SDS011;4820;50.870;4.702;2023-06-22T03:52:40;8.27;;;7.47;;
9563;SDS011;4820;50.870;4.702;2023-06-22T03:55:06;9.60;;;8.45;;
9563;SDS011;4820;50.870;4.702;2023-06-22T03:57:33;9.57;;;8.57;;
9563;SDS011;4820;50.870;4.702;2023-06-22T03:59:59;8.70;;;7.90;;
9563;SDS011;4820;50.870;4.702;2023-06-22T04:02:26;9.00;;;8.07;;
9563;SDS011;4820;50.870;4.702;2023-06-22T04:04:51;9.02;;;8.07;;
9563;SDS011;4820;50.870;4.702;2023-06-22T04:07:17;8.68;;;7.85;;
9563;SDS011;4820;50.870;4.702;2023-06-22T04:09:43;8.95;;;8.07;;
9563;SDS011;4820;50.870;4.702;2023-06-22T04:12:09;9.15;;;8.20;;
9563;SDS011;4820;50.870;4.702;2023-06-22T04:14:34;8.35;;;7.65;;
9563;SDS011;4820;50.870;4.702;2023-06-22T04:17:00;9.57;;;8.52;;
9563;SDS011;4820;50.870;4.702;2023-06-22T04:19:28;7.78;;;7.07;;
9563;SDS011;4820;50.870;4.702;2023-06-22T04:21:53;8.57;;;7.78;;
9563;SDS011;4820;50.870;4.702;2023-06-22T04:24:19;8.75;;;7.88;;
9563;SDS011;4820;50.870;4.702;2023-06-22T04:26:46;10.60;;;9.45;;
9563;SDS011;4820;50.870;4.702;2023-06-22T04:29:12;10.10;;;9.05;;
9563;SDS011;4820;50.870;4.702;2023-06-22T04:31:38;10.23;;;9.30;;
9563;SDS011;4820;50.870;4.702;2023-06-22T04:34:04;9.63;;;8.68;;
9563;SDS011;4820;50.870;4.702;2023-06-22T04:36:40;9.80;;;8.70;;
9563;SDS011;4820;50.870;4.702;2023-06-22T04:39:07;9.88;;;8.98;;
9563;SDS011;4820;50.870;4.702;2023-06-22T04:41:40;10.38;;;9.13;;
9563;SDS011;4820;50.870;4.702;2023-06-22T04:44:09;10.20;;;9.30;;
9563;SDS011;4820;50.870;4.702;2023-06-22T04:46:37;9.55;;;8.57;;
9563;SDS011;4820;50.870;4.702;2023-06-22T04:49:07;10.75;;;9.23;;
9563;SDS011;4820;50.870;4.702;2023-06-22T04:51:39;9.20;;;8.30;;
9563;SDS011;4820;50.870;4.702;2023-06-22T04:54:05;10.10;;;9.20;;
9563;SDS011;4820;50.870;4.702;2023-06-22T04:56:32;9.35;;;8.55;;
9563;SDS011;4820;50.870;4.702;2023-06-22T04:58:58;10.65;;;9.65;;
9563;SDS011;4820;50.870;4.702;2023-06-22T05:01:24;11.18;;;9.68;;
9563;SDS011;4820;50.870;4.702;2023-06-22T05:03:50;11.68;;;10.57;;
9563;SDS011;4820;50.870;4.702;2023-06-22T05:06:21;11.70;;;10.60;;
9563;SDS011;4820;50.870;4.702;2023-06-22T05:08:50;12.85;;;11.23;;
9563;SDS011;4820;50.870;4.702;2023-06-22T05:11:17;9.48;;;8.60;;
9563;SDS011;4820;50.870;4.702;2023-06-22T05:13:43;9.70;;;8.80;;
9563;SDS011;4820;50.870;4.702;2023-06-22T05:16:09;10.70;;;9.77;;
9563;SDS011;4820;50.870;4.702;2023-06-22T05:18:34;11.57;;;9.70;;
9563;SDS011;4820;50.870;4.702;2023-06-22T05:21:01;11.05;;;10.00;;
9563;SDS011;4820;50.870;4.702;2023-06-22T05:23:26;12.50;;;10.60;;
9563;SDS011;4820;50.870;4.702;2023-06-22T05:25:52;11.43;;;10.07;;
9563;SDS011;4820;50.870;4.702;2023-06-22T05:28:19;10.68;;;9.65;;
9563;SDS011;4820;50.870;4.702;2023-06-22T05:30:47;11.25;;;10.15;;
9563;SDS011;4820;50.870;4.702;2023-06-22T05:33:13;12.27;;;11.07;;
9563;SDS011;4820;50.870;4.702;2023-06-22T05:35:39;13.40;;;12.10;;
9563;SDS011;4820;50.870;4.702;2023-06-22T05:38:04;10.70;;;9.70;;
9563;SDS011;4820;50.870;4.702;2023-06-22T05:40:30;10.45;;;9.30;;
9563;SDS011;4820;50.870;4.702;2023-06-22T05:42:56;10.90;;;8.48;;
9563;SDS011;4820;50.870;4.702;2023-06-22T05:45:21;10.55;;;9.55;;
9563;SDS011;4820;50.870;4.702;2023-06-22T05:47:47;9.85;;;8.85;;
9563;SDS011;4820;50.870;4.702;2023-06-22T05:50:13;11.30;;;10.10;;
9563;SDS011;4820;50.870;4.702;2023-06-22T05:52:38;9.70;;;8.88;;
9563;SDS011;4820;50.870;4.702;2023-06-22T05:55:04;10.48;;;9.48;;
9563;SDS011;4820;50.870;4.702;2023-06-22T05:57:30;11.10;;;9.95;;
9563;SDS011;4820;50.870;4.702;2023-06-22T05:59:56;12.05;;;9.55;;
9563;SDS011;4820;50.870;4.702;2023-06-22T06:02:21;12.27;;;9.40;;
9563;SDS011;4820;50.870;4.702;2023-06-22T06:04:47;11.68;;;9.70;;
9563;SDS011;4820;50.870;4.702;2023-06-22T06:07:13;12.70;;;10.27;;
9563;SDS011;4820;50.870;4.702;2023-06-22T06:09:39;16.08;;;10.40;;
9563;SDS011;4820;50.870;4.702;2023-06-22T06:12:07;14.27;;;10.30;;
9563;SDS011;4820;50.870;4.702;2023-06-22T06:14:33;11.15;;;10.00;;
9563;SDS011;4820;50.870;4.702;2023-06-22T06:16:58;13.80;;;11.68;;
9563;SDS011;4820;50.870;4.702;2023-06-22T06:19:24;13.07;;;10.45;;
9563;SDS011;4820;50.870;4.702;2023-06-22T06:21:50;11.13;;;9.88;;
9563;SDS011;4820;50.870;4.702;2023-06-22T06:24:16;17.40;;;11.98;;
9563;SDS011;4820;50.870;4.702;2023-06-22T06:26:41;16.40;;;11.73;;
9563;SDS011;4820;50.870;4.702;2023-06-22T06:29:07;12.80;;;11.45;;
9563;SDS011;4820;50.870;4.702;2023-06-22T06:31:33;13.45;;;12.15;;
9563;SDS011;4820;50.870;4.702;2023-06-22T06:33:58;12.60;;;11.27;;
9563;SDS011;4820;50.870;4.702;2023-06-22T06:36:25;25.67;;;12.90;;
9563;SDS011;4820;50.870;4.702;2023-06-22T06:38:51;14.43;;;11.45;;
9563;SDS011;4820;50.870;4.702;2023-06-22T06:41:17;13.57;;;12.13;;
9563;SDS011;4820;50.870;4.702;2023-06-22T06:43:44;15.98;;;13.13;;
9563;SDS011;4820;50.870;4.702;2023-06-22T06:46:09;14.30;;;12.30;;
9563;SDS011;4820;50.870;4.702;2023-06-22T06:48:35;13.07;;;10.80;;
9563;SDS011;4820;50.870;4.702;2023-06-22T06:51:01;14.50;;;13.00;;
9563;SDS011;4820;50.870;4.702;2023-06-22T06:53:27;15.80;;;14.10;;
9563;SDS011;4820;50.870;4.702;2023-06-22T06:55:53;13.40;;;12.00;;
9563;SDS011;4820;50.870;4.702;2023-06-22T06:58:19;12.93;;;11.63;;
9563;SDS011;4820;50.870;4.702;2023-06-22T07:00:45;13.98;;;12.55;;
9563;SDS011;4820;50.870;4.702;2023-06-22T07:03:11;14.65;;;12.98;;
9563;SDS011;4820;50.870;4.702;2023-06-22T07:05:40;13.38;;;11.98;;
9563;SDS011;4820;50.870;4.702;2023-06-22T07:08:07;12.95;;;11.48;;
9563;SDS011;4820;50.870;4.702;2023-06-22T07:10:33;13.68;;;11.10;;
9563;SDS011;4820;50.870;4.702;2023-06-22T07:13:02;12.93;;;10.75;;
9563;SDS011;4820;50.870;4.702;2023-06-22T07:15:28;11.07;;;10.00;;
9563;SDS011;4820;50.870;4.702;2023-06-22T07:17:54;12.65;;;9.82;;
9563;SDS011;4820;50.870;4.702;2023-06-22T07:20:19;9.70;;;8.50;;
9563;SDS011;4820;50.870;4.702;2023-06-22T07:22:45;10.60;;;9.50;;
9563;SDS011;4820;50.870;4.702;2023-06-22T07:25:11;8.68;;;7.78;;
9563;SDS011;4820;50.870;4.702;2023-06-22T07:27:42;9.05;;;7.80;;
9563;SDS011;4820;50.870;4.702;2023-06-22T07:30:13;9.00;;;8.20;;
9563;SDS011;4820;50.870;4.702;2023-06-22T07:32:39;9.98;;;8.77;;
9563;SDS011;4820;50.870;4.702;2023-06-22T07:35:05;10.25;;;8.40;;
9563;SDS011;4820;50.870;4.702;2023-06-22T07:37:31;8.82;;;7.95;;
9563;SDS011;4820;50.870;4.702;2023-06-22T07:39:59;11.13;;;8.38;;
9563;SDS011;4820;50.870;4.702;2023-06-22T07:42:25;9.55;;;8.65;;
9563;SDS011;4820;50.870;4.702;2023-06-22T07:44:53;8.88;;;7.97;;
9563;SDS011;4820;50.870;4.702;2023-06-22T07:47:19;12.32;;;8.95;;
9563;SDS011;4820;50.870;4.702;2023-06-22T07:49:48;8.13;;;7.40;;
9563;SDS011;4820;50.870;4.702;2023-06-22T07:52:14;10.30;;;8.38;;
9563;SDS011;4820;50.870;4.702;2023-06-22T07:54:39;9.45;;;7.82;;
9563;SDS011;4820;50.870;4.702;2023-06-22T07:57:05;8.88;;;8.02;;
9563;SDS011;4820;50.870;4.702;2023-06-22T07:59:31;8.32;;;7.20;;
9563;SDS011;4820;50.870;4.702;2023-06-22T08:01:57;9.57;;;8.57;;
9563;SDS011;4820;50.870;4.702;2023-06-22T08:04:23;9.95;;;7.20;;
9563;SDS011;4820;50.870;4.702;2023-06-22T08:06:48;9.30;;;7.55;;
9563;SDS011;4820;50.870;4.702;2023-06-22T08:09:14;10.80;;;8.30;;
9563;SDS011;4820;50.870;4.702;2023-06-22T08:11:40;9.90;;;7.25;;
9563;SDS011;4820;50.870;4.702;2023-06-22T08:14:06;8.73;;;7.55;;
9563;SDS011;4820;50.870;4.702;2023-06-22T08:16:31;8.52;;;7.10;;
9563;SDS011;4820;50.870;4.702;2023-06-22T08:18:57;8.32;;;7.05;;
9563;SDS011;4820;50.870;4.702;2023-06-22T08:21:22;8.60;;;7.80;;
9563;SDS011;4820;50.870;4.702;2023-06-22T08:23:48;8.75;;;6.88;;
9563;SDS011;4820;50.870;4.702;2023-06-22T08:26:14;11.35;;;7.75;;
9563;SDS011;4820;50.870;4.702;2023-06-22T08:28:40;7.78;;;7.00;;
9563;SDS011;4820;50.870;4.702;2023-06-22T08:31:06;9.05;;;7.60;;
9563;SDS011;4820;50.870;4.702;2023-06-22T08:33:31;10.48;;;7.70;;
9563;SDS011;4820;50.870;4.702;2023-06-22T08:35:58;10.48;;;7.22;;
9563;SDS011;4820;50.870;4.702;2023-06-22T08:38:25;10.65;;;6.95;;
9563;SDS011;4820;50.870;4.702;2023-06-22T08:40:51;10.75;;;6.75;;
9563;SDS011;4820;50.870;4.702;2023-06-22T08:43:16;6.70;;;6.10;;
9563;SDS011;4820;50.870;4.702;2023-06-22T08:45:42;7.25;;;6.50;;
9563;SDS011;4820;50.870;4.702;2023-06-22T08:48:08;8.80;;;6.25;;
9563;SDS011;4820;50.870;4.702;2023-06-22T08:50:33;9.68;;;6.60;;
9563;SDS011;4820;50.870;4.702;2023-06-22T08:52:59;9.55;;;6.20;;
9563;SDS011;4820;50.870;4.702;2023-06-22T08:55:25;6.88;;;5.47;;
9563;SDS011;4820;50.870;4.702;2023-06-22T08:57:50;5.85;;;5.35;;
9563;SDS011;4820;50.870;4.702;2023-06-22T09:00:16;13.43;;;6.10;;
9563;SDS011;4820;50.870;4.702;2023-06-22T09:02:44;6.78;;;6.05;;
9563;SDS011;4820;50.870;4.702;2023-06-22T09:05:11;6.72;;;4.80;;
9563;SDS011;4820;50.870;4.702;2023-06-22T09:07:37;7.55;;;5.88;;
9563;SDS011;4820;50.870;4.702;2023-06-22T09:10:03;6.40;;;5.32;;
9563;SDS011;4820;50.870;4.702;2023-06-22T09:12:30;8.02;;;5.53;;
9563;SDS011;4820;50.870;4.702;2023-06-22T09:14:56;6.60;;;5.60;;
9563;SDS011;4820;50.870;4.702;2023-06-22T09:17:23;7.68;;;5.20;;
9563;SDS011;4820;50.870;4.702;2023-06-22T09:19:49;6.65;;;5.65;;
9563;SDS011;4820;50.870;4.702;2023-06-22T09:22:15;6.80;;;5.18;;
9563;SDS011;4820;50.870;4.702;2023-06-22T09:24:41;7.53;;;6.75;;
9563;SDS011;4820;50.870;4.702;2023-06-22T09:27:07;8.00;;;6.00;;
9563;SDS011;4820;50.870;4.702;2023-06-22T09:29:33;7.63;;;6.50;;
9563;SDS011;4820;50.870;4.702;2023-06-22T09:31:59;6.10;;;5.50;;
9563;SDS011;4820;50.870;4.702;2023-06-22T09:34:25;7.18;;;6.57;;
9563;SDS011;4820;50.870;4.702;2023-06-22T09:36:52;8.20;;;6.60;;
9563;SDS011;4820;50.870;4.702;2023-06-22T09:39:18;8.15;;;6.72;;
9563;SDS011;4820;50.870;4.702;2023-06-22T09:41:45;7.13;;;6.15;;
9563;SDS011;4820;50.870;4.702;2023-06-22T09:44:10;8.65;;;7.00;;
9563;SDS011;4820;50.870;4.702;2023-06-22T09:46:36;10.40;;;7.28;;
9563;SDS011;4820;50.870;4.702;2023-06-22T09:49:02;13.45;;;11.88;;
9563;SDS011;4820;50.870;4.702;2023-06-22T09:51:29;11.30;;;8.50;;
9563;SDS011;4820;50.870;4.702;2023-06-22T09:53:55;11.38;;;9.60;;
9563;SDS011;4820;50.870;4.702;2023-06-22T09:56:21;16.88;;;11.35;;
9563;SDS011;4820;50.870;4.702;2023-06-22T09:58:48;14.20;;;11.93;;
9563;SDS011;4820;50.870;4.702;2023-06-22T10:01:18;11.82;;;10.25;;
9563;SDS011;4820;50.870;4.702;2023-06-22T10:03:43;11.25;;;10.15;;
9563;SDS011;4820;50.870;4.702;2023-06-22T10:06:09;16.08;;;13.75;;
9563;SDS011;4820;50.870;4.702;2023-06-22T10:08:35;15.13;;;13.73;;
9563;SDS011;4820;50.870;4.702;2023-06-22T10:11:01;14.10;;;12.75;;
9563;SDS011;4820;50.870;4.702;2023-06-22T10:13:29;14.27;;;12.82;;
9563;SDS011;4820;50.870;4.702;2023-06-22T10:15:54;12.85;;;11.68;;
9563;SDS011;4820;50.870;4.702;2023-06-22T10:18:22;13.57;;;12.13;;
9563;SDS011;4820;50.870;4.702;2023-06-22T10:20:49;13.63;;;12.32;;
9563;SDS011;4820;50.870;4.702;2023-06-22T10:23:19;15.25;;;13.68;;
9563;SDS011;4820;50.870;4.702;2023-06-22T10:25:45;15.50;;;13.93;;
9563;SDS011;4820;50.870;4.702;2023-06-22T10:30:39;18.73;;;17.00;;
9563;SDS011;4820;50.870;4.702;2023-06-22T10:33:11;18.67;;;16.85;;
9563;SDS011;4820;50.870;4.702;2023-06-22T10:35:37;20.58;;;18.75;;
9563;SDS011;4820;50.870;4.702;2023-06-22T10:38:03;19.65;;;17.80;;
9563;SDS011;4820;50.870;4.702;2023-06-22T10:40:30;20.08;;;18.08;;
9563;SDS011;4820;50.870;4.702;2023-06-22T10:42:57;18.38;;;16.77;;
9563;SDS011;4820;50.870;4.702;2023-06-22T10:45:24;21.95;;;19.80;;
9563;SDS011;4820;50.870;4.702;2023-06-22T10:47:51;20.73;;;18.85;;
9563;SDS011;4820;50.870;4.702;2023-06-22T10:50:19;17.75;;;16.13;;
9563;SDS011;4820;50.870;4.702;2023-06-22T10:52:45;19.75;;;17.85;;
9563;SDS011;4820;50.870;4.702;2023-06-22T10:55:11;19.08;;;17.13;;
9563;SDS011;4820;50.870;4.702;2023-06-22T10:57:37;19.95;;;17.98;;
9563;SDS011;4820;50.870;4.702;2023-06-22T11:00:07;20.30;;;18.27;;
9563;SDS011;4820;50.870;4.702;2023-06-22T11:02:34;18.85;;;17.08;;
9563;SDS011;4820;50.870;4.702;2023-06-22T11:04:59;18.20;;;16.38;;
9563;SDS011;4820;50.870;4.702;2023-06-22T11:07:25;18.38;;;16.67;;
9563;SDS011;4820;50.870;4.702;2023-06-22T11:09:53;19.15;;;17.33;;
9563;SDS011;4820;50.870;4.702;2023-06-22T11:12:19;20.50;;;17.90;;
9563;SDS011;4820;50.870;4.702;2023-06-22T11:14:45;21.85;;;19.65;;
9563;SDS011;4820;50.870;4.702;2023-06-22T11:17:10;21.02;;;18.92;;
9563;SDS011;4820;50.870;4.702;2023-06-22T11:19:36;20.77;;;18.85;;
9563;SDS011;4820;50.870;4.702;2023-06-22T11:22:02;20.65;;;18.80;;
9563;SDS011;4820;50.870;4.702;2023-06-22T11:24:27;22.17;;;20.10;;
9563;SDS011;4820;50.870;4.702;2023-06-22T11:26:53;22.33;;;20.23;;
9563;SDS011;4820;50.870;4.702;2023-06-22T11:29:19;22.20;;;20.13;;
9563;SDS011;4820;50.870;4.702;2023-06-22T11:31:44;22.25;;;20.02;;
9563;SDS011;4820;50.870;4.702;2023-06-22T11:34:10;21.35;;;19.38;;
9563;SDS011;4820;50.870;4.702;2023-06-22T11:36:37;20.60;;;18.77;;
9563;SDS011;4820;50.870;4.702;2023-06-22T11:39:02;23.80;;;21.42;;
9563;SDS011;4820;50.870;4.702;2023-06-22T11:41:28;22.08;;;20.02;;
9563;SDS011;4820;50.870;4.702;2023-06-22T11:43:54;23.92;;;21.65;;
9563;SDS011;4820;50.870;4.702;2023-06-22T11:46:19;24.70;;;22.40;;
9563;SDS011;4820;50.870;4.702;2023-06-22T11:48:45;25.65;;;22.92;;
9563;SDS011;4820;50.870;4.702;2023-06-22T11:51:11;23.45;;;21.15;;
9563;SDS011;4820;50.870;4.702;2023-06-22T11:53:37;25.42;;;23.02;;
9563;SDS011;4820;50.870;4.702;2023-06-22T11:56:02;26.58;;;23.98;;
9563;SDS011;4820;50.870;4.702;2023-06-22T11:58:28;23.63;;;21.50;;
9563;SDS011;4820;50.870;4.702;2023-06-22T12:00:54;23.92;;;21.70;;
9563;SDS011;4820;50.870;4.702;2023-06-22T12:03:21;25.05;;;22.75;;
9563;SDS011;4820;50.870;4.702;2023-06-22T12:05:47;25.73;;;23.33;;
9563;SDS011;4820;50.870;4.702;2023-06-22T12:08:13;24.33;;;22.13;;
9563;SDS011;4820;50.870;4.702;2023-06-22T12:10:39;26.42;;;23.92;;
9563;SDS011;4820;50.870;4.702;2023-06-22T12:13:04;27.92;;;25.13;;
9563;SDS011;4820;50.870;4.702;2023-06-22T12:15:30;27.50;;;24.90;;
9563;SDS011;4820;50.870;4.702;2023-06-22T12:17:56;26.55;;;23.85;;
9563;SDS011;4820;50.870;4.702;2023-06-22T12:20:21;27.55;;;24.85;;
9563;SDS011;4820;50.870;4.702;2023-06-22T12:22:47;26.52;;;24.02;;
9563;SDS011;4820;50.870;4.702;2023-06-22T12:25:14;27.83;;;25.23;;
9563;SDS011;4820;50.870;4.702;2023-06-22T12:27:40;26.90;;;24.48;;
9563;SDS011;4820;50.870;4.702;2023-06-22T12:30:05;27.50;;;24.95;;
9563;SDS011;4820;50.870;4.702;2023-06-22T12:32:31;26.88;;;24.38;;
9563;SDS011;4820;50.870;4.702;2023-06-22T12:34:57;31.52;;;28.50;;
9563;SDS011;4820;50.870;4.702;2023-06-22T12:37:23;31.65;;;28.70;;
9563;SDS011;4820;50.870;4.702;2023-06-22T12:39:49;30.17;;;27.38;;
9563;SDS011;4820;50.870;4.702;2023-06-22T12:42:15;31.73;;;28.65;;
9563;SDS011;4820;50.870;4.702;2023-06-22T12:44:41;32.60;;;29.45;;
9563;SDS011;4820;50.870;4.702;2023-06-22T12:47:07;31.38;;;28.38;;
9563;SDS011;4820;50.870;4.702;2023-06-22T12:49:34;31.65;;;28.70;;
9563;SDS011;4820;50.870;4.702;2023-06-22T12:52:00;32.38;;;29.20;;
9563;SDS011;4820;50.870;4.702;2023-06-22T12:54:26;32.83;;;29.65;;
9563;SDS011;4820;50.870;4.702;2023-06-22T12:56:53;33.65;;;30.45;;
9563;SDS011;4820;50.870;4.702;2023-06-22T12:59:19;31.67;;;28.67;;
9563;SDS011;4820;50.870;4.702;2023-06-22T13:01:45;34.83;;;31.58;;
9563;SDS011;4820;50.870;4.702;2023-06-22T13:04:11;32.67;;;29.58;;
9563;SDS011;4820;50.870;4.702;2023-06-22T13:06:40;32.95;;;29.90;;
9563;SDS011;4820;50.870;4.702;2023-06-22T13:09:06;31.55;;;28.75;;
9563;SDS011;4820;50.870;4.702;2023-06-22T13:11:32;29.35;;;26.52;;
9563;SDS011;4820;50.870;4.702;2023-06-22T13:13:58;32.47;;;29.38;;
9563;SDS011;4820;50.870;4.702;2023-06-22T13:16:24;31.10;;;28.23;;
9563;SDS011;4820;50.870;4.702;2023-06-22T13:18:50;31.90;;;28.90;;
9563;SDS011;4820;50.870;4.702;2023-06-22T13:21:16;32.03;;;29.05;;
9563;SDS011;4820;50.870;4.702;2023-06-22T13:23:43;32.50;;;29.58;;
9563;SDS011;4820;50.870;4.702;2023-06-22T13:26:09;33.15;;;29.85;;
9563;SDS011;4820;50.870;4.702;2023-06-22T13:28:35;33.13;;;29.88;;
9563;SDS011;4820;50.870;4.702;2023-06-22T13:31:00;32.28;;;29.25;;
9563;SDS011;4820;50.870;4.702;2023-06-22T13:33:27;30.05;;;27.05;;
9563;SDS011;4820;50.870;4.702;2023-06-22T13:35:53;34.78;;;31.48;;
9563;SDS011;4820;50.870;4.702;2023-06-22T13:38:18;35.78;;;32.38;;
9563;SDS011;4820;50.870;4.702;2023-06-22T13:40:45;36.17;;;32.67;;
9563;SDS011;4820;50.870;4.702;2023-06-22T13:43:13;34.15;;;31.02;;
9563;SDS011;4820;50.870;4.702;2023-06-22T13:45:40;37.40;;;33.67;;
9563;SDS011;4820;50.870;4.702;2023-06-22T13:48:05;34.10;;;30.92;;
9563;SDS011;4820;50.870;4.702;2023-06-22T13:50:31;37.97;;;34.22;;
9563;SDS011;4820;50.870;4.702;2023-06-22T13:52:57;35.75;;;32.33;;
9563;SDS011;4820;50.870;4.702;2023-06-22T13:55:23;38.30;;;34.75;;
9563;SDS011;4820;50.870;4.702;2023-06-22T13:57:48;35.63;;;32.22;;
9563;SDS011;4820;50.870;4.702;2023-06-22T14:00:15;39.97;;;36.13;;
9563;SDS011;4820;50.870;4.702;2023-06-22T14:02:41;34.75;;;31.25;;
9563;SDS011;4820;50.870;4.702;2023-06-22T14:05:08;37.63;;;33.92;;
9563;SDS011;4820;50.870;4.702;2023-06-22T14:07:34;38.45;;;34.78;;
9563;SDS011;4820;50.870;4.702;2023-06-22T14:10:00;35.38;;;31.98;;
9563;SDS011;4820;50.870;4.702;2023-06-22T14:12:27;35.72;;;32.40;;
9563;SDS011;4820;50.870;4.702;2023-06-22T14:14:52;34.17;;;31.15;;
9563;SDS011;4820;50.870;4.702;2023-06-22T14:17:18;34.63;;;31.42;;
9563;SDS011;4820;50.870;4.702;2023-06-22T14:19:49;34.60;;;31.42;;
9563;SDS011;4820;50.870;4.702;2023-06-22T14:22:17;32.22;;;29.33;;
9563;SDS011;4820;50.870;4.702;2023-06-22T14:24:46;33.10;;;30.00;;
9563;SDS011;4820;50.870;4.702;2023-06-22T14:27:13;31.77;;;28.88;;
9563;SDS011;4820;50.870;4.702;2023-06-22T14:29:38;30.83;;;28.02;;
9563;SDS011;4820;50.870;4.702;2023-06-22T14:32:04;32.92;;;30.00;;
9563;SDS011;4820;50.870;4.702;2023-06-22T14:34:31;31.58;;;28.70;;
9563;SDS011;4820;50.870;4.702;2023-06-22T14:36:57;33.50;;;30.40;;
9563;SDS011;4820;50.870;4.702;2023-06-22T14:39:23;33.80;;;30.58;;
9563;SDS011;4820;50.870;4.702;2023-06-22T14:41:50;32.22;;;29.33;;
9563;SDS011;4820;50.870;4.702;2023-06-22T14:44:15;32.17;;;29.25;;
9563;SDS011;4820;50.870;4.702;2023-06-22T14:46:41;32.90;;;29.83;;
9563;SDS011;4820;50.870;4.702;2023-06-22T14:49:07;33.00;;;30.08;;
9563;SDS011;4820;50.870;4.702;2023-06-22T14:51:33;34.10;;;30.80;;
9563;SDS011;4820;50.870;4.702;2023-06-22T14:53:58;30.02;;;27.27;;
9563;SDS011;4820;50.870;4.702;2023-06-22T14:56:24;31.65;;;28.75;;
9563;SDS011;4820;50.870;4.702;2023-06-22T14:58:51;29.92;;;27.13;;
9563;SDS011;4820;50.870;4.702;2023-06-22T15:01:17;30.08;;;27.25;;
9563;SDS011;4820;50.870;4.702;2023-06-22T15:03:43;27.88;;;25.38;;
9563;SDS011;4820;50.870;4.702;2023-06-22T15:06:09;26.92;;;24.52;;
9563;SDS011;4820;50.870;4.702;2023-06-22T15:08:38;28.45;;;25.95;;
9563;SDS011;4820;50.870;4.702;2023-06-22T15:11:09;25.45;;;23.13;;
9563;SDS011;4820;50.870;4.702;2023-06-22T15:13:38;25.38;;;23.15;;